Time;durP1;ratioP1;P1;durP2;ratioP2;P2;SDS_P1;SDS_P2;PMS_P1;PMS_P2;Temp;Humidity;BMP_temperature;BMP_pressure;BME280_temperature;BME280_humidity;BME280_pressure;Samples;Min_cycle;Max_cycle;Signal;HPM_P1;HPM_P2
2021/11/17 02:25:57;;;;;;;4.83;3.47;;;17.10;54.30;;;;;;10406346;28;20197;-67
2021/11/17 02:31:53;;;;;;;6.40;3.77;;;17.10;54.30;;;;;;10410520;28;20225;-68
2021/11/17 02:37:55;;;;;;;4.40;3.30;;;17.10;54.20;;;;;;11407355;22;20512;-67
2021/11/17 02:43:44;;;;;;;6.80;3.80;;;17.10;54.00;;;;;;10367462;28;20210;-64
2021/11/17 02:49:22;;;;;;;6.97;3.70;;;17.10;54.00;;;;;;10352065;28;20588;-63
2021/11/17 02:54:57;;;;;;;4.37;3.27;;;17.10;54.10;;;;;;10357185;28;20727;-64
2021/11/17 03:00:48;;;;;;;3.47;2.73;;;17.10;54.40;;;;;;10329431;28;20217;-64
2021/11/17 03:06:24;;;;;;;4.67;2.90;;;17.10;53.80;;;;;;10329868;28;20184;-65
2021/11/17 03:12:08;;;;;;;3.57;3.00;;;17.00;53.80;;;;;;10329316;28;20227;-64
2021/11/17 03:17:47;;;;;;;3.57;3.03;;;17.00;53.90;;;;;;10327747;28;20191;-65
2021/11/17 03:23:22;;;;;;;3.90;3.03;;;17.00;53.80;;;;;;10328199;28;20574;-63
2021/11/17 03:29:02;;;;;;;4.27;3.00;;;17.00;53.70;;;;;;10327932;28;20216;-63
2021/11/17 03:34:57;;;;;;;3.60;2.63;;;17.00;53.80;;;;;;10326540;28;20215;-63
2021/11/17 03:40:49;;;;;;;4.50;3.07;;;17.00;53.80;;;;;;10290342;28;20363;-63
2021/11/17 03:46:39;;;;;;;4.40;3.37;;;17.00;53.60;;;;;;10339259;28;20203;-63
2021/11/17 03:52:18;;;;;;;3.53;2.57;;;17.00;53.60;;;;;;10332837;28;20215;-61
2021/11/17 03:57:52;;;;;;;3.80;2.60;;;17.10;53.70;;;;;;10372441;22;20257;-66
2021/11/17 04:03:40;;;;;;;3.70;2.97;;;17.00;53.70;;;;;;10390013;28;20186;-66
2021/11/17 04:09:18;;;;;;;3.57;2.87;;;17.00;53.80;;;;;;10407069;28;20214;-64
2021/11/17 04:14:52;;;;;;;4.07;2.83;;;17.00;53.70;;;;;;10373598;28;20215;-68
2021/11/17 04:20:28;;;;;;;4.07;2.53;;;17.00;53.90;;;;;;10409300;28;20588;-68
2021/11/17 04:26:13;;;;;;;4.93;3.33;;;17.00;53.90;;;;;;10405838;28;20277;-68
2021/11/17 04:32:13;;;;;;;3.10;2.60;;;17.00;53.80;;;;;;10415118;28;20655;-68
2021/11/17 04:38:02;;;;;;;3.77;2.87;;;17.00;53.80;;;;;;10404726;28;20222;-67
2021/11/17 04:43:41;;;;;;;3.67;2.93;;;17.00;53.80;;;;;;10414628;28;20216;-67
2021/11/17 04:49:27;;;;;;;3.93;3.10;;;17.10;53.50;;;;;;10375772;28;20221;-67
2021/11/17 04:55:10;;;;;;;4.83;3.43;;;17.20;53.20;;;;;;10375228;28;20225;-68
2021/11/17 05:00:56;;;;;;;4.23;3.30;;;17.30;53.00;;;;;;10369478;28;20225;-67
2021/11/17 05:06:36;;;;;;;3.37;2.73;;;17.30;52.60;;;;;;10370667;28;20202;-67
2021/11/17 05:12:10;;;;;;;3.60;2.77;;;17.30;52.90;;;;;;10372211;28;20213;-67
2021/11/17 05:17:43;;;;;;;5.07;3.10;;;17.20;53.20;;;;;;10384258;28;20229;-67
2021/11/17 05:23:28;;;;;;;3.90;2.90;;;17.20;53.40;;;;;;10401216;28;20564;-67
2021/11/17 05:29:30;;;;;;;3.93;2.93;;;17.20;53.60;;;;;;10372107;28;20212;-67
2021/11/17 05:35:06;;;;;;;3.30;2.67;;;17.20;53.70;;;;;;10362482;28;20222;-68
2021/11/17 05:40:44;;;;;;;5.00;3.40;;;17.10;53.80;;;;;;10370733;28;20217;-67
2021/11/17 05:46:19;;;;;;;3.90;3.20;;;17.10;53.90;;;;;;10384534;28;20568;-67
2021/11/17 05:51:59;;;;;;;5.37;3.20;;;17.10;54.00;;;;;;10374060;28;20221;-67
2021/11/17 05:57:37;;;;;;;4.33;3.07;;;17.10;54.00;;;;;;10376044;28;20229;-67
2021/11/17 06:03:12;;;;;;;4.10;3.40;;;17.10;53.90;;;;;;10389312;28;20178;-67
2021/11/17 06:08:34;;;;;;;4.67;3.53;;;17.10;53.70;;;;;;10382278;28;20584;-64
2021/11/17 06:14:00;;;;;;;5.13;3.70;;;17.20;53.90;;;;;;10402240;28;20221;-64
2021/11/17 06:19:26;;;;;;;5.03;4.00;;;17.30;53.90;;;;;;10398706;28;20218;-64
2021/11/17 06:24:50;;;;;;;4.13;2.90;;;17.40;53.30;;;;;;10394429;28;20580;-64
2021/11/17 06:30:16;;;;;;;4.47;3.53;;;17.50;53.20;;;;;;10402172;28;20229;-64
2021/11/17 06:35:40;;;;;;;3.87;3.17;;;17.40;53.20;;;;;;10409130;28;20206;-64
2021/11/17 06:41:02;;;;;;;4.13;3.17;;;17.40;53.70;;;;;;10388987;28;20750;-64
2021/11/17 06:46:25;;;;;;;4.80;3.27;;;17.40;53.90;;;;;;10386378;28;20656;-64
2021/11/17 06:51:48;;;;;;;4.23;3.13;;;17.30;53.90;;;;;;10390363;28;20206;-64
2021/11/17 06:57:11;;;;;;;4.40;3.20;;;17.30;54.00;;;;;;10391921;28;20226;-68
2021/11/17 07:02:34;;;;;;;4.70;3.60;;;17.30;54.00;;;;;;10387545;28;20186;-67
2021/11/17 07:07:59;;;;;;;4.80;3.53;;;17.20;54.30;;;;;;10401534;28;20604;-68
2021/11/17 07:13:21;;;;;;;4.47;3.83;;;17.20;54.70;;;;;;10409762;28;20225;-67
2021/11/17 07:18:45;;;;;;;4.50;3.30;;;17.10;54.90;;;;;;10410815;28;20222;-66
2021/11/17 07:24:07;;;;;;;5.07;3.77;;;17.10;55.10;;;;;;10416391;28;20201;-66
2021/11/17 07:29:30;;;;;;;5.13;3.93;;;17.10;55.00;;;;;;10415371;28;20217;-67
2021/11/17 07:34:54;;;;;;;4.73;3.93;;;17.10;54.80;;;;;;10413851;28;20218;-67
2021/11/17 07:40:17;;;;;;;6.10;4.00;;;17.30;54.60;;;;;;10405991;28;20699;-66
2021/11/17 07:45:39;;;;;;;5.03;4.03;;;17.30;54.10;;;;;;10401459;28;20202;-67
2021/11/17 07:51:03;;;;;;;8.13;4.47;;;17.30;54.10;;;;;;10403885;28;20228;-67
2021/11/17 07:56:26;;;;;;;5.70;4.53;;;17.20;54.20;;;;;;10399666;28;20711;-67
2021/11/17 08:01:49;;;;;;;5.20;4.27;;;17.20;54.50;;;;;;10407941;28;20201;-67
2021/11/17 08:07:18;;;;;;;5.47;4.30;;;17.10;54.70;;;;;;10406575;28;20213;-68
2021/11/17 08:12:40;;;;;;;4.90;3.80;;;17.10;54.80;;;;;;10396573;28;20336;-68
2021/11/17 08:18:03;;;;;;;5.23;4.13;;;17.10;55.50;;;;;;10414014;28;20224;-66
2021/11/17 08:23:27;;;;;;;6.33;4.60;;;17.10;55.40;;;;;;10413101;28;20202;-68
2021/11/17 08:28:49;;;;;;;6.43;4.43;;;17.10;55.40;;;;;;10399352;28;20867;-67
2021/11/17 08:34:11;;;;;;;6.70;4.57;;;17.10;55.50;;;;;;10401883;28;20237;-67
2021/11/17 08:39:35;;;;;;;6.37;4.53;;;17.00;55.60;;;;;;10400068;28;20233;-68
2021/11/17 08:44:57;;;;;;;7.70;5.40;;;17.00;55.60;;;;;;10409812;28;20569;-68
2021/11/17 08:50:22;;;;;;;7.87;5.27;;;17.00;55.50;;;;;;10398879;28;20588;-67
2021/11/17 08:55:46;;;;;;;7.40;5.20;;;17.10;55.20;;;;;;10401135;28;20225;-68
2021/11/17 09:01:10;;;;;;;8.60;5.87;;;17.20;55.20;;;;;;10411133;28;20612;-68
2021/11/17 09:06:32;;;;;;;7.37;5.60;;;17.30;54.80;;;;;;10397990;28;20210;-68
2021/11/17 09:11:55;;;;;;;8.87;6.30;;;17.40;54.50;;;;;;10411899;28;20198;-69
2021/11/17 09:17:17;;;;;;;7.50;5.63;;;17.30;54.50;;;;;;10411146;28;20220;-67
2021/11/17 09:22:41;;;;;;;6.83;5.10;;;17.30;54.60;;;;;;10411957;28;20660;-68
2021/11/17 09:28:05;;;;;;;7.60;5.27;;;17.30;54.70;;;;;;10409829;28;20221;-68
2021/11/17 09:33:28;;;;;;;7.87;5.73;;;17.20;54.80;;;;;;10408335;28;20574;-64
2021/11/17 09:38:53;;;;;;;7.20;5.70;;;17.20;55.20;;;;;;10407475;28;20421;-68
2021/11/17 09:44:19;;;;;;;6.57;5.33;;;18.00;53.40;;;;;;10402185;28;20280;-67
2021/11/17 09:49:45;;;;;;;5.80;4.30;;;17.50;55.10;;;;;;10405761;28;20210;-67
2021/11/17 09:55:12;;;;;;;6.70;4.87;;;17.40;55.90;;;;;;10405920;28;20237;-67
2021/11/17 10:00:40;;;;;;;6.57;5.33;;;17.30;56.40;;;;;;10393248;28;20230;-67
2021/11/17 10:17:43;;;;;;;5.10;3.80;;;17.20;56.80;;;;;;10374658;28;20209;-67
2021/11/17 10:23:20;;;;;;;5.90;4.33;;;17.30;56.60;;;;;;10421290;22;20244;-65
2021/11/17 10:28:48;;;;;;;9.90;6.23;;;17.40;56.30;;;;;;10459773;28;20201;-65
2021/11/17 10:34:17;;;;;;;6.87;5.10;;;17.50;55.70;;;;;;10454906;28;20227;-65
2021/11/17 10:39:44;;;;;;;7.43;5.70;;;17.60;55.40;;;;;;10468831;28;20196;-65
2021/11/17 10:45:26;;;;;;;7.33;5.23;;;17.60;55.40;;;;;;10441913;28;20696;-65
2021/11/17 10:50:50;;;;;;;5.57;4.20;;;17.60;55.60;;;;;;10482763;28;20196;-65
2021/11/17 10:56:15;;;;;;;5.50;4.17;;;17.50;56.00;;;;;;10453174;28;20236;-65
2021/11/17 11:01:40;;;;;;;6.23;4.37;;;17.50;56.20;;;;;;10483335;28;20602;-64
2021/11/17 11:07:07;;;;;;;5.27;4.13;;;17.40;56.40;;;;;;10459957;28;20212;-65
2021/11/17 11:12:31;;;;;;;5.07;3.80;;;17.40;56.50;;;;;;10447789;28;20193;-65
2021/11/17 11:18:34;;;;;;;5.80;3.87;;;17.40;56.60;;;;;;10459886;28;20611;-65
2021/11/17 11:24:14;;;;;;;6.17;4.07;;;17.30;56.50;;;;;;10458118;28;20220;-65
2021/11/17 11:29:38;;;;;;;4.87;3.77;;;17.30;56.70;;;;;;10456144;28;20201;-65
2021/11/17 11:35:17;;;;;;;7.90;4.67;;;17.30;56.90;;;;;;10456488;28;20707;-65
2021/11/17 11:41:05;;;;;;;5.80;4.63;;;17.30;56.90;;;;;;10463439;28;20202;-65
2021/11/17 11:46:32;;;;;;;6.07;4.43;;;17.30;56.90;;;;;;10461218;28;20223;-65
2021/11/17 11:52:27;;;;;;;5.57;4.70;;;17.30;56.90;;;;;;10485651;28;20216;-65
2021/11/17 11:57:55;;;;;;;6.43;5.73;;;17.40;56.40;;;;;;10467265;28;20697;-65
2021/11/17 12:03:18;;;;;;;8.33;6.13;;;17.50;56.10;;;;;;10459717;28;20702;-65
2021/11/17 12:08:45;;;;;;;7.27;5.10;;;17.50;56.10;;;;;;10468827;28;20204;-65
2021/11/17 12:14:11;;;;;;;8.60;5.60;;;17.50;56.30;;;;;;10475329;28;20218;-65
2021/11/17 12:19:40;;;;;;;8.00;6.43;;;17.50;56.80;;;;;;10472414;28;20202;-65
2021/11/17 12:25:14;;;;;;;6.87;5.23;;;17.40;56.90;;;;;;10490492;28;20229;-65
2021/11/17 12:30:43;;;;;;;7.53;5.70;;;17.40;57.50;;;;;;10455892;28;20194;-66
2021/11/17 12:36:13;;;;;;;8.93;6.83;;;17.40;57.80;;;;;;10477016;28;20695;-65
2021/11/17 12:41:38;;;;;;;8.37;6.33;;;17.40;58.00;;;;;;10447708;28;20241;-65
2021/11/17 12:47:07;;;;;;;8.43;6.37;;;17.40;58.00;;;;;;10453874;28;20213;-64
2021/11/17 12:52:38;;;;;;;11.40;6.73;;;17.30;58.00;;;;;;10475293;28;20192;-65
2021/11/17 12:58:11;;;;;;;11.80;7.70;;;17.30;58.10;;;;;;10471043;28;20200;-65
2021/11/17 13:03:40;;;;;;;16.37;9.37;;;17.30;58.20;;;;;;10446204;28;20209;-64
2021/11/17 13:09:09;;;;;;;18.03;10.10;;;17.30;58.60;;;;;;10440559;28;20197;-64
2021/11/17 13:14:34;;;;;;;19.57;9.47;;;17.40;58.80;;;;;;10450320;28;20217;-65
2021/11/17 13:19:59;;;;;;;20.13;9.77;;;17.60;58.90;;;;;;10462717;28;20198;-65
2021/11/17 13:25:26;;;;;;;18.27;10.87;;;17.70;58.60;;;;;;10459309;28;20218;-65
2021/11/17 13:30:50;;;;;;;17.60;10.53;;;17.80;57.90;;;;;;10436329;28;20201;-64
2021/11/17 13:36:15;;;;;;;16.37;9.13;;;17.80;57.80;;;;;;10449466;28;20225;-65
2021/11/17 13:41:41;;;;;;;12.93;8.97;;;17.70;58.50;;;;;;10442778;28;20694;-65
2021/11/17 13:47:09;;;;;;;15.23;8.97;;;17.70;58.20;;;;;;10448567;28;20296;-65
2021/11/17 13:52:35;;;;;;;12.63;9.03;;;17.60;58.30;;;;;;10452327;28;20197;-65
2021/11/17 13:57:57;;;;;;;11.03;8.10;;;17.60;58.60;;;;;;10446303;28;20224;-65
2021/11/17 14:03:19;;;;;;;9.87;7.77;;;17.60;58.80;;;;;;10439430;28;20217;-65
2021/11/17 14:08:43;;;;;;;13.27;7.83;;;17.60;58.90;;;;;;10446302;28;20280;-65
2021/11/17 14:14:05;;;;;;;10.70;7.47;;;17.50;59.00;;;;;;10447571;28;20221;-65
2021/11/17 14:19:27;;;;;;;7.77;6.23;;;17.50;59.10;;;;;;10449953;28;20193;-65
2021/11/17 14:24:51;;;;;;;8.53;6.30;;;17.50;59.20;;;;;;10450467;28;20217;-65
2021/11/17 14:30:19;;;;;;;9.33;6.67;;;17.60;59.10;;;;;;10445547;28;20205;-64
2021/11/17 14:35:42;;;;;;;12.43;6.10;;;17.60;59.00;;;;;;10448821;28;20213;-65
2021/11/17 14:41:05;;;;;;;10.80;6.80;;;17.60;59.00;;;;;;10434190;28;20216;-64
2021/11/17 14:46:27;;;;;;;12.00;6.47;;;17.60;59.10;;;;;;10438162;28;20711;-65
2021/11/17 14:51:50;;;;;;;9.77;6.17;;;17.60;59.10;;;;;;10443452;28;20208;-64
2021/11/17 14:57:13;;;;;;;9.53;5.80;;;17.70;58.90;;;;;;10434751;28;20225;-65
2021/11/17 15:02:35;;;;;;;12.80;5.30;;;17.70;58.90;;;;;;10444300;28;20230;-65
2021/11/17 15:07:58;;;;;;;9.03;5.57;;;17.70;59.00;;;;;;10441797;28;20988;-65
2021/11/17 15:13:21;;;;;;;6.63;4.80;;;17.60;59.10;;;;;;10434411;28;20224;-65
2021/11/17 15:18:46;;;;;;;11.10;6.20;;;17.60;59.20;;;;;;10446224;28;20650;-65
2021/11/17 15:24:09;;;;;;;9.10;6.20;;;17.60;59.20;;;;;;10441845;28;20221;-65
2021/11/17 15:29:33;;;;;;;7.83;4.97;;;17.50;59.20;;;;;;10433270;28;20204;-65
2021/11/17 15:34:56;;;;;;;8.67;5.73;;;17.50;59.40;;;;;;10449508;28;20227;-65
2021/11/17 15:40:20;;;;;;;8.03;5.53;;;17.50;59.60;;;;;;10447759;28;20217;-64
2021/11/17 15:45:44;;;;;;;8.60;5.20;;;17.50;59.60;;;;;;10448606;28;20206;-64
2021/11/17 15:51:12;;;;;;;8.60;5.67;;;17.50;59.70;;;;;;10449831;28;20204;-64
2021/11/17 15:56:35;;;;;;;7.30;5.17;;;17.50;59.60;;;;;;10439249;28;20221;-65
2021/11/17 16:01:58;;;;;;;11.07;5.30;;;17.50;59.30;;;;;;10452381;28;20552;-65
2021/11/17 16:07:20;;;;;;;9.83;5.70;;;17.60;59.00;;;;;;10440150;28;20196;-65
2021/11/17 16:12:43;;;;;;;9.93;5.73;;;17.70;58.60;;;;;;10449250;28;20228;-64
2021/11/17 16:18:07;;;;;;;9.23;5.50;;;17.70;58.60;;;;;;10455504;28;20287;-65
2021/11/17 16:29:14;;;;;;;8.83;5.73;;;17.60;58.70;;;;;;10452471;28;20384;-65
2021/11/17 16:34:37;;;;;;;9.73;5.17;;;17.60;58.90;;;;;;10436060;28;20225;-65
2021/11/17 16:40:00;;;;;;;11.47;5.70;;;17.60;59.00;;;;;;10447294;28;20204;-63
2021/11/17 16:45:22;;;;;;;7.70;5.20;;;17.60;59.00;;;;;;10469135;22;20232;-65
2021/11/17 16:50:47;;;;;;;7.67;5.27;;;17.60;59.10;;;;;;10448467;28;20205;-65
2021/11/17 16:56:09;;;;;;;6.87;5.50;;;17.50;59.10;;;;;;10423139;28;20600;-65
2021/11/17 17:01:31;;;;;;;10.90;5.70;;;17.60;59.10;;;;;;10440687;28;20460;-64
2021/11/17 17:06:54;;;;;;;9.77;6.10;;;17.60;59.00;;;;;;10409157;28;20672;-63
2021/11/17 17:12:22;;;;;;;11.90;5.70;;;17.50;58.90;;;;;;10405999;28;20635;-65
2021/11/17 17:17:46;;;;;;;11.82;7.47;;;17.50;58.90;;;;;;10409085;28;20443;-64
2021/11/17 17:23:12;;;;;;;13.73;6.47;;;18.20;57.10;;;;;;10423203;28;20218;-64
2021/11/17 17:28:36;;;;;;;11.13;5.67;;;17.90;58.40;;;;;;10420577;28;20201;-65
2021/11/17 17:34:00;;;;;;;10.20;6.00;;;17.80;58.80;;;;;;10407842;28;20263;-64
2021/11/17 17:39:23;;;;;;;9.90;5.70;;;17.70;59.00;;;;;;10411789;28;20202;-63
2021/11/17 17:44:48;;;;;;;9.40;5.93;;;17.70;59.10;;;;;;10410926;28;20715;-63
2021/11/17 17:50:13;;;;;;;10.43;4.93;;;17.60;59.00;;;;;;10408523;28;20320;-63
2021/11/17 17:55:38;;;;;;;8.97;5.30;;;17.60;59.00;;;;;;10409486;28;20225;-63
2021/11/17 18:01:01;;;;;;;9.87;4.77;;;17.60;58.90;;;;;;10409524;28;20272;-63
2021/11/17 18:06:24;;;;;;;11.93;6.03;;;17.60;59.00;;;;;;10411074;28;20209;-63
2021/11/17 18:11:47;;;;;;;11.07;6.47;;;17.60;59.50;;;;;;10404057;28;20240;-64
2021/11/17 18:17:09;;;;;;;10.10;6.30;;;17.50;58.90;;;;;;10370544;28;20222;-63
2021/11/17 18:22:31;;;;;;;14.77;7.17;;;17.50;59.00;;;;;;10390777;28;20214;-64
2021/11/17 18:27:55;;;;;;;11.37;6.90;;;17.50;58.80;;;;;;10391249;28;20196;-64
2021/11/17 18:33:17;;;;;;;9.20;6.07;;;17.60;58.50;;;;;;10411151;28;20750;-64
2021/11/17 18:38:39;;;;;;;10.97;6.10;;;17.60;58.10;;;;;;10410139;28;20220;-64
2021/11/17 18:44:06;;;;;;;11.87;6.27;;;17.60;57.90;;;;;;10410410;28;20236;-64
2021/11/17 18:49:28;;;;;;;11.47;6.03;;;17.70;57.80;;;;;;10409634;28;20186;-64
2021/11/17 18:54:51;;;;;;;13.17;6.33;;;17.70;57.60;;;;;;10405878;28;20224;-64
2021/11/17 19:00:18;;;;;;;9.97;6.03;;;17.70;57.60;;;;;;10371989;28;20205;-64
2021/11/17 19:05:41;;;;;;;11.67;7.03;;;17.60;57.70;;;;;;10369812;28;20693;-64
2021/11/17 19:11:06;;;;;;;10.70;5.63;;;17.60;57.80;;;;;;10376147;28;20206;-64
2021/11/17 19:16:30;;;;;;;12.10;5.90;;;17.60;57.80;;;;;;10377630;28;20222;-63
2021/11/17 19:21:55;;;;;;;7.80;4.53;;;17.60;57.90;;;;;;10417385;28;20217;-63
2021/11/17 19:27:17;;;;;;;9.27;5.27;;;17.50;57.90;;;;;;10418698;28;20248;-68
2021/11/17 19:32:39;;;;;;;8.57;5.50;;;17.50;57.90;;;;;;10415092;28;20214;-68
2021/11/17 19:38:04;;;;;;;9.10;4.47;;;17.50;58.10;;;;;;10402834;28;20218;-68
2021/11/17 19:43:27;;;;;;;10.67;5.57;;;17.40;58.00;;;;;;10433880;28;20221;-68
2021/11/17 19:48:49;;;;;;;9.53;4.90;;;17.40;58.00;;;;;;10429453;28;20200;-68
2021/11/17 19:54:14;;;;;;;7.37;4.67;;;17.40;57.50;;;;;;10430297;28;20573;-68
2021/11/17 19:59:36;;;;;;;7.57;4.30;;;17.50;57.30;;;;;;10427904;28;20198;-68
2021/11/17 20:04:59;;;;;;;9.20;4.27;;;17.50;57.10;;;;;;10426465;28;20228;-68
2021/11/17 20:10:24;;;;;;;11.37;4.97;;;17.50;56.90;;;;;;10424295;28;20202;-68
2021/11/17 20:15:49;;;;;;;9.33;4.43;;;17.50;56.60;;;;;;10433116;28;20240;-68
2021/11/17 20:21:12;;;;;;;6.83;3.77;;;17.50;56.50;;;;;;10423557;28;20209;-68
2021/11/17 20:26:36;;;;;;;8.70;4.07;;;17.50;56.60;;;;;;10430718;28;20276;-68
2021/11/17 20:31:59;;;;;;;6.80;3.00;;;17.50;56.60;;;;;;10424041;28;20607;-68
2021/11/17 20:37:22;;;;;;;5.80;2.97;;;17.40;56.70;;;;;;10429203;28;20226;-68
2021/11/17 20:42:48;;;;;;;6.60;3.10;;;17.40;56.90;;;;;;10428498;28;20645;-68
2021/11/17 20:48:14;;;;;;;6.50;2.67;;;17.40;57.00;;;;;;10424564;28;20572;-68
2021/11/17 20:53:37;;;;;;;7.53;3.07;;;17.30;57.10;;;;;;10417137;28;20210;-68
2021/11/17 20:59:00;;;;;;;7.10;3.23;;;17.30;57.10;;;;;;10429093;28;20350;-68
2021/11/17 21:04:22;;;;;;;4.57;3.07;;;17.30;57.20;;;;;;10427344;28;20213;-68
2021/11/17 21:09:45;;;;;;;6.57;2.53;;;17.30;57.20;;;;;;10415874;28;20193;-68
2021/11/17 21:15:10;;;;;;;6.50;2.40;;;17.30;57.10;;;;;;10418487;28;20221;-68
2021/11/17 21:20:37;;;;;;;8.27;3.63;;;17.30;56.70;;;;;;10425120;28;20741;-68
2021/11/17 21:25:59;;;;;;;6.90;2.90;;;17.30;56.40;;;;;;10424506;28;20233;-68
2021/11/17 21:31:23;;;;;;;8.47;2.90;;;17.40;56.50;;;;;;10418588;28;20292;-68
2021/11/17 21:36:46;;;;;;;6.37;2.87;;;17.40;56.60;;;;;;10426731;28;20209;-68
2021/11/17 21:42:08;;;;;;;4.77;2.37;;;17.30;56.60;;;;;;10388267;28;20234;-68
2021/11/17 21:47:32;;;;;;;7.37;3.07;;;17.30;56.90;;;;;;10395697;28;20198;-68
2021/11/17 21:52:54;;;;;;;4.80;2.50;;;17.30;57.00;;;;;;10411016;28;20584;-68
2021/11/17 21:58:17;;;;;;;7.63;3.57;;;17.20;57.10;;;;;;10411063;28;20600;-68
2021/11/17 22:03:42;;;;;;;6.90;3.10;;;17.20;57.30;;;;;;10395614;28;20300;-68
2021/11/17 22:09:05;;;;;;;9.67;3.50;;;17.20;57.40;;;;;;10386853;28;20669;-68
2021/11/17 22:14:27;;;;;;;7.93;3.43;;;17.10;57.40;;;;;;10370822;28;20218;-68
2021/11/17 22:19:51;;;;;;;6.50;3.07;;;17.20;57.50;;;;;;10433314;28;20189;-68
2021/11/17 22:25:14;;;;;;;9.43;4.27;;;17.10;57.50;;;;;;10451399;28;20221;-67
2021/11/17 22:30:37;;;;;;;7.23;3.60;;;17.10;57.20;;;;;;10452903;28;20193;-68
2021/11/17 22:36:00;;;;;;;7.37;3.90;;;17.20;57.00;;;;;;10450881;28;20221;-68
2021/11/17 22:41:24;;;;;;;6.93;4.00;;;17.20;56.80;;;;;;10412369;28;20229;-68
2021/11/17 22:46:46;;;;;;;12.03;4.53;;;17.20;56.70;;;;;;10471869;22;20232;-65
2021/11/17 22:52:10;;;;;;;6.03;3.23;;;17.20;56.70;;;;;;10451392;28;20626;-65
2021/11/17 22:57:32;;;;;;;7.07;3.30;;;17.20;56.80;;;;;;10434191;28;20209;-64
2021/11/17 23:02:55;;;;;;;7.57;3.70;;;17.20;56.70;;;;;;10439288;28;20220;-64
2021/11/17 23:08:19;;;;;;;5.57;3.00;;;17.20;56.80;;;;;;10419803;28;20186;-64
2021/11/17 23:13:42;;;;;;;5.93;2.97;;;17.20;56.90;;;;;;10409242;28;20221;-64
2021/11/17 23:19:05;;;;;;;7.37;3.33;;;17.10;56.90;;;;;;10410243;28;20221;-63
2021/11/17 23:24:29;;;;;;;7.10;3.20;;;17.10;57.00;;;;;;10413552;28;20692;-64
2021/11/17 23:29:51;;;;;;;4.70;2.77;;;17.10;56.90;;;;;;10446325;28;20201;-63
2021/11/17 23:35:16;;;;;;;5.17;3.07;;;17.10;57.00;;;;;;10449691;28;20221;-64
2021/11/17 23:40:41;;;;;;;5.10;2.73;;;17.10;57.00;;;;;;10432433;28;20687;-64
2021/11/17 23:46:04;;;;;;;6.47;3.20;;;17.10;56.90;;;;;;10421804;28;20224;-64
2021/11/17 23:51:27;;;;;;;7.40;2.63;;;17.10;56.90;;;;;;10423797;28;20649;-64
2021/11/17 23:56:51;;;;;;;7.17;3.03;;;17.10;56.90;;;;;;10414384;28;20226;-64
